sensor_id;sensor_type;location;lat;lon;timestamp;pressure;altitude;pressure_sealevel;temperature;humidity
17230;BME280;8731;50.364;8.958;2023-03-20T00:03:26;100257.75;;;11.59;82.31
17230;BME280;8731;50.364;8.958;2023-03-20T00:07:48;100262.09;;;11.60;82.18
17230;BME280;8731;50.364;8.958;2023-03-20T00:12:13;100261.59;;;11.64;82.14
17230;BME280;8731;50.364;8.958;2023-03-20T00:16:40;100258.22;;;11.55;82.77
17230;BME280;8731;50.364;8.958;2023-03-20T00:21:03;100260.91;;;11.57;82.52
17230;BME280;8731;50.364;8.958;2023-03-20T00:25:26;100270.28;;;11.48;83.58
17230;BME280;8731;50.364;8.958;2023-03-20T00:29:50;100268.06;;;11.42;83.76
17230;BME280;8731;50.364;8.958;2023-03-20T00:34:14;100270.63;;;11.42;84.14
17230;BME280;8731;50.364;8.958;2023-03-20T00:38:39;100276.75;;;11.44;83.69
17230;BME280;8731;50.364;8.958;2023-03-20T00:43:03;100291.91;;;11.43;83.72
17230;BME280;8731;50.364;8.958;2023-03-20T00:47:27;100284.41;;;11.44;83.87
17230;BME280;8731;50.364;8.958;2023-03-20T00:51:50;100283.38;;;11.42;83.63
17230;BME280;8731;50.364;8.958;2023-03-20T00:56:29;100288.06;;;11.37;83.98
17230;BME280;8731;50.364;8.958;2023-03-20T01:00:53;100297.00;;;11.43;83.59
17230;BME280;8731;50.364;8.958;2023-03-20T01:05:18;100294.34;;;11.41;83.39
17230;BME280;8731;50.364;8.958;2023-03-20T01:09:40;100296.75;;;11.40;84.15
17230;BME280;8731;50.364;8.958;2023-03-20T01:14:03;100292.81;;;11.43;83.33
17230;BME280;8731;50.364;8.958;2023-03-20T01:18:26;100297.91;;;11.43;83.59
17230;BME280;8731;50.364;8.958;2023-03-20T01:22:50;100303.16;;;11.45;83.76
17230;BME280;8731;50.364;8.958;2023-03-20T01:27:15;100293.72;;;11.44;83.58
17230;BME280;8731;50.364;8.958;2023-03-20T01:31:38;100293.75;;;11.35;84.30
17230;BME280;8731;50.364;8.958;2023-03-20T01:36:01;100290.31;;;11.34;84.31
17230;BME280;8731;50.364;8.958;2023-03-20T01:40:30;100298.91;;;11.26;85.34
17230;BME280;8731;50.364;8.958;2023-03-20T01:44:58;100289.47;;;11.25;85.19
17230;BME280;8731;50.364;8.958;2023-03-20T01:54:43;100295.66;;;11.19;85.21
17230;BME280;8731;50.364;8.958;2023-03-20T01:59:11;100296.09;;;11.23;84.67
17230;BME280;8731;50.364;8.958;2023-03-20T02:03:37;100288.16;;;11.20;85.06
17230;BME280;8731;50.364;8.958;2023-03-20T02:08:21;100296.44;;;11.18;85.14
17230;BME280;8731;50.364;8.958;2023-03-20T02:12:47;100295.66;;;11.19;84.72
17230;BME280;8731;50.364;8.958;2023-03-20T02:17:20;100291.34;;;11.18;85.07
17230;BME280;8731;50.364;8.958;2023-03-20T02:22:17;100290.75;;;11.12;84.66
17230;BME280;8731;50.364;8.958;2023-03-20T02:27:01;100293.59;;;11.15;84.88
17230;BME280;8731;50.364;8.958;2023-03-20T02:31:52;100304.56;;;11.14;84.88
17230;BME280;8731;50.364;8.958;2023-03-20T02:36:51;100299.91;;;11.10;84.97
17230;BME280;8731;50.364;8.958;2023-03-20T02:41:30;100305.19;;;11.02;85.73
17230;BME280;8731;50.364;8.958;2023-03-20T02:46:02;100311.19;;;11.03;85.52
17230;BME280;8731;50.364;8.958;2023-03-20T02:50:38;100305.94;;;11.01;85.67
17230;BME280;8731;50.364;8.958;2023-03-20T02:55:13;100316.00;;;11.00;86.15
17230;BME280;8731;50.364;8.958;2023-03-20T02:59:45;100317.94;;;11.02;86.05
17230;BME280;8731;50.364;8.958;2023-03-20T03:04:16;100315.25;;;11.01;86.89
17230;BME280;8731;50.364;8.958;2023-03-20T03:08:44;100326.41;;;10.84;86.68
17230;BME280;8731;50.364;8.958;2023-03-20T03:13:13;100329.63;;;11.00;86.74
17230;BME280;8731;50.364;8.958;2023-03-20T03:17:41;100331.28;;;11.00;86.76
17230;BME280;8731;50.364;8.958;2023-03-20T03:22:08;100332.31;;;11.02;86.43
17230;BME280;8731;50.364;8.958;2023-03-20T03:26:35;100336.53;;;11.01;86.84
17230;BME280;8731;50.364;8.958;2023-03-20T03:31:00;100334.13;;;11.03;87.17
17230;BME280;8731;50.364;8.958;2023-03-20T03:35:26;100329.56;;;10.90;88.38
17230;BME280;8731;50.364;8.958;2023-03-20T03:39:51;100326.06;;;10.98;87.78
17230;BME280;8731;50.364;8.958;2023-03-20T03:44:20;100323.78;;;11.01;87.27
17230;BME280;8731;50.364;8.958;2023-03-20T03:48:51;100327.84;;;10.99;87.30
17230;BME280;8731;50.364;8.958;2023-03-20T03:53:21;100327.47;;;10.77;90.01
17230;BME280;8731;50.364;8.958;2023-03-20T03:57:49;100336.13;;;10.88;88.14
17230;BME280;8731;50.364;8.958;2023-03-20T04:02:17;100338.97;;;10.91;88.53
17230;BME280;8731;50.364;8.958;2023-03-20T04:06:41;100340.91;;;10.94;88.66
17230;BME280;8731;50.364;8.958;2023-03-20T04:11:05;100354.06;;;10.98;88.21
17230;BME280;8731;50.364;8.958;2023-03-20T04:15:29;100348.22;;;10.99;88.01
17230;BME280;8731;50.364;8.958;2023-03-20T04:19:52;100353.47;;;11.01;87.98
17230;BME280;8731;50.364;8.958;2023-03-20T04:24:15;100347.00;;;11.04;88.46
17230;BME280;8731;50.364;8.958;2023-03-20T04:28:39;100353.47;;;11.01;88.82
17230;BME280;8731;50.364;8.958;2023-03-20T04:33:20;100357.19;;;11.04;88.73
17230;BME280;8731;50.364;8.958;2023-03-20T04:37:53;100364.84;;;11.04;88.97
17230;BME280;8731;50.364;8.958;2023-03-20T04:42:16;100367.66;;;11.07;88.51
17230;BME280;8731;50.364;8.958;2023-03-20T04:46:39;100361.53;;;11.05;89.01
17230;BME280;8731;50.364;8.958;2023-03-20T04:51:08;100370.69;;;11.03;88.80
17230;BME280;8731;50.364;8.958;2023-03-20T04:55:38;100369.94;;;11.04;88.61
17230;BME280;8731;50.364;8.958;2023-03-20T05:00:12;100375.78;;;11.03;88.85
17230;BME280;8731;50.364;8.958;2023-03-20T05:04:39;100369.94;;;11.04;89.33
17230;BME280;8731;50.364;8.958;2023-03-20T05:09:03;100380.53;;;11.09;88.96
17230;BME280;8731;50.364;8.958;2023-03-20T05:13:27;100378.13;;;11.11;88.91
17230;BME280;8731;50.364;8.958;2023-03-20T05:17:56;100367.66;;;11.07;89.82
17230;BME280;8731;50.364;8.958;2023-03-20T05:22:38;100374.56;;;11.08;89.58
17230;BME280;8731;50.364;8.958;2023-03-20T05:27:08;100363.78;;;11.02;90.02
17230;BME280;8731;50.364;8.958;2023-03-20T05:31:55;100358.09;;;11.05;90.00
17230;BME280;8731;50.364;8.958;2023-03-20T05:36:36;100364.41;;;11.00;89.06
17230;BME280;8731;50.364;8.958;2023-03-20T05:41:18;100357.06;;;11.03;90.63
17230;BME280;8731;50.364;8.958;2023-03-20T05:46:01;100356.66;;;10.90;91.22
17230;BME280;8731;50.364;8.958;2023-03-20T05:50:42;100364.56;;;11.01;90.90
17230;BME280;8731;50.364;8.958;2023-03-20T05:55:31;100371.44;;;11.02;91.04
17230;BME280;8731;50.364;8.958;2023-03-20T06:00:27;100370.06;;;11.06;91.49
17230;BME280;8731;50.364;8.958;2023-03-20T06:05:09;100367.09;;;11.01;91.14
17230;BME280;8731;50.364;8.958;2023-03-20T06:09:40;100363.03;;;11.03;90.94
17230;BME280;8731;50.364;8.958;2023-03-20T06:14:06;100374.28;;;11.33;92.59
17230;BME280;8731;50.364;8.958;2023-03-20T06:18:33;100370.72;;;10.95;91.44
17230;BME280;8731;50.364;8.958;2023-03-20T06:22:55;100384.94;;;11.01;90.40
17230;BME280;8731;50.364;8.958;2023-03-20T06:27:19;100388.03;;;11.16;90.52
17230;BME280;8731;50.364;8.958;2023-03-20T06:31:43;100392.84;;;11.13;91.29
17230;BME280;8731;50.364;8.958;2023-03-20T06:36:17;100381.56;;;11.20;91.23
17230;BME280;8731;50.364;8.958;2023-03-20T06:40:44;100388.16;;;11.18;91.56
17230;BME280;8731;50.364;8.958;2023-03-20T06:45:10;100389.63;;;11.24;90.91
17230;BME280;8731;50.364;8.958;2023-03-20T06:49:45;100404.06;;;11.15;91.92
17230;BME280;8731;50.364;8.958;2023-03-20T06:54:09;100393.75;;;11.14;92.26
17230;BME280;8731;50.364;8.958;2023-03-20T06:58:32;100404.22;;;11.08;92.21
17230;BME280;8731;50.364;8.958;2023-03-20T07:02:54;100401.41;;;11.05;91.31
17230;BME280;8731;50.364;8.958;2023-03-20T07:07:17;100404.97;;;11.16;91.12
17230;BME280;8731;50.364;8.958;2023-03-20T07:11:41;100405.72;;;11.15;91.19
17230;BME280;8731;50.364;8.958;2023-03-20T07:16:07;100412.00;;;11.18;90.37
17230;BME280;8731;50.364;8.958;2023-03-20T07:20:34;100407.19;;;11.21;90.47
17230;BME280;8731;50.364;8.958;2023-03-20T07:24:56;100421.53;;;11.29;90.23
17230;BME280;8731;50.364;8.958;2023-03-20T07:29:20;100420.63;;;11.29;91.19
17230;BME280;8731;50.364;8.958;2023-03-20T07:33:44;100429.59;;;11.34;90.01
17230;BME280;8731;50.364;8.958;2023-03-20T07:38:06;100433.53;;;11.30;90.77
17230;BME280;8731;50.364;8.958;2023-03-20T07:42:36;100431.25;;;11.42;89.48
17230;BME280;8731;50.364;8.958;2023-03-20T07:47:06;100437.66;;;11.47;88.99
17230;BME280;8731;50.364;8.958;2023-03-20T07:51:28;100444.69;;;11.50;89.01
17230;BME280;8731;50.364;8.958;2023-03-20T07:55:50;100440.78;;;11.53;88.65
17230;BME280;8731;50.364;8.958;2023-03-20T08:00:14;100438.22;;;11.53;88.57
17230;BME280;8731;50.364;8.958;2023-03-20T08:04:40;100437.88;;;11.59;88.62
17230;BME280;8731;50.364;8.958;2023-03-20T08:09:02;100434.16;;;11.55;87.81
17230;BME280;8731;50.364;8.958;2023-03-20T08:13:24;100433.78;;;11.69;87.15
17230;BME280;8731;50.364;8.958;2023-03-20T08:17:47;100442.13;;;11.77;86.62
17230;BME280;8731;50.364;8.958;2023-03-20T08:22:11;100445.66;;;11.69;86.46
17230;BME280;8731;50.364;8.958;2023-03-20T08:26:34;100441.91;;;11.65;87.04
17230;BME280;8731;50.364;8.958;2023-03-20T08:30:56;100442.00;;;11.76;86.21
17230;BME280;8731;50.364;8.958;2023-03-20T08:35:18;100451.38;;;11.66;84.86
17230;BME280;8731;50.364;8.958;2023-03-20T08:39:42;100459.56;;;11.73;84.68
17230;BME280;8731;50.364;8.958;2023-03-20T08:44:05;100462.53;;;11.86;83.95
17230;BME280;8731;50.364;8.958;2023-03-20T08:48:27;100466.69;;;11.94;83.85
17230;BME280;8731;50.364;8.958;2023-03-20T08:52:49;100458.75;;;11.91;83.68
17230;BME280;8731;50.364;8.958;2023-03-20T08:57:13;100465.59;;;12.01;83.34
17230;BME280;8731;50.364;8.958;2023-03-20T09:01:36;100474.41;;;12.04;82.41
17230;BME280;8731;50.364;8.958;2023-03-20T09:05:59;100473.09;;;11.99;82.32
17230;BME280;8731;50.364;8.958;2023-03-20T09:10:21;100472.59;;;12.12;81.48
17230;BME280;8731;50.364;8.958;2023-03-20T09:14:45;100475.00;;;12.10;81.07
17230;BME280;8731;50.364;8.958;2023-03-20T09:19:07;100472.84;;;12.15;81.20
17230;BME280;8731;50.364;8.958;2023-03-20T09:23:29;100466.09;;;12.15;81.25
17230;BME280;8731;50.364;8.958;2023-03-20T09:27:52;100472.78;;;12.23;80.47
17230;BME280;8731;50.364;8.958;2023-03-20T09:32:16;100471.97;;;12.33;80.77
17230;BME280;8731;50.364;8.958;2023-03-20T09:36:39;100477.75;;;12.59;80.71
17230;BME280;8731;50.364;8.958;2023-03-20T09:41:02;100469.25;;;12.98;79.82
17230;BME280;8731;50.364;8.958;2023-03-20T09:45:38;100469.75;;;13.23;78.87
17230;BME280;8731;50.364;8.958;2023-03-20T09:50:16;100467.81;;;13.60;78.24
17230;BME280;8731;50.364;8.958;2023-03-20T09:54:47;100466.78;;;13.58;76.98
17230;BME280;8731;50.364;8.958;2023-03-20T09:59:13;100461.94;;;13.91;77.32
17230;BME280;8731;50.364;8.958;2023-03-20T10:03:42;100466.06;;;13.89;77.06
17230;BME280;8731;50.364;8.958;2023-03-20T10:08:13;100470.66;;;13.93;76.88
17230;BME280;8731;50.364;8.958;2023-03-20T10:12:46;100473.16;;;13.42;77.78
17230;BME280;8731;50.364;8.958;2023-03-20T10:17:26;100468.22;;;13.85;77.45
17230;BME280;8731;50.364;8.958;2023-03-20T10:22:01;100462.47;;;14.07;77.19
17230;BME280;8731;50.364;8.958;2023-03-20T10:26:34;100457.84;;;13.93;76.80
17230;BME280;8731;50.364;8.958;2023-03-20T10:31:08;100457.88;;;14.03;76.85
17230;BME280;8731;50.364;8.958;2023-03-20T10:35:47;100459.31;;;14.72;75.52
17230;BME280;8731;50.364;8.958;2023-03-20T10:40:27;100458.53;;;15.16;73.91
17230;BME280;8731;50.364;8.958;2023-03-20T10:44:57;100449.41;;;15.19;75.50
17230;BME280;8731;50.364;8.958;2023-03-20T10:49:28;100450.88;;;15.49;72.67
17230;BME280;8731;50.364;8.958;2023-03-20T10:53:58;100448.66;;;15.10;74.54
17230;BME280;8731;50.364;8.958;2023-03-20T10:58:25;100440.69;;;15.17;72.52
17230;BME280;8731;50.364;8.958;2023-03-20T11:02:51;100440.72;;;15.07;73.12
17230;BME280;8731;50.364;8.958;2023-03-20T11:07:20;100445.84;;;15.07;72.71
17230;BME280;8731;50.364;8.958;2023-03-20T11:11:46;100443.75;;;15.13;72.95
17230;BME280;8731;50.364;8.958;2023-03-20T11:16:20;100440.91;;;14.98;73.47
17230;BME280;8731;50.364;8.958;2023-03-20T11:20:48;100445.25;;;14.67;74.63
17230;BME280;8731;50.364;8.958;2023-03-20T11:25:22;100438.34;;;14.56;73.85
17230;BME280;8731;50.364;8.958;2023-03-20T11:29:50;100439.28;;;14.47;73.68
17230;BME280;8731;50.364;8.958;2023-03-20T11:34:22;100432.78;;;14.20;74.76
17230;BME280;8731;50.364;8.958;2023-03-20T11:38:49;100427.28;;;14.05;75.38
17230;BME280;8731;50.364;8.958;2023-03-20T11:43:15;100425.34;;;14.12;75.71
17230;BME280;8731;50.364;8.958;2023-03-20T11:47:41;100425.34;;;13.92;75.85
17230;BME280;8731;50.364;8.958;2023-03-20T11:52:11;100419.22;;;14.00;76.38
17230;BME280;8731;50.364;8.958;2023-03-20T11:56:36;100403.59;;;14.07;76.53
17230;BME280;8731;50.364;8.958;2023-03-20T12:01:00;100406.88;;;14.17;76.48
17230;BME280;8731;50.364;8.958;2023-03-20T12:05:29;100395.09;;;14.19;77.38
17230;BME280;8731;50.364;8.958;2023-03-20T12:09:55;100392.28;;;14.16;76.24
17230;BME280;8731;50.364;8.958;2023-03-20T12:14:26;100391.06;;;14.00;77.02
17230;BME280;8731;50.364;8.958;2023-03-20T12:18:56;100380.47;;;14.48;76.93
17230;BME280;8731;50.364;8.958;2023-03-20T12:23:31;100363.13;;;14.88;76.40
17230;BME280;8731;50.364;8.958;2023-03-20T12:28:02;100357.44;;;15.14;74.38
17230;BME280;8731;50.364;8.958;2023-03-20T12:32:34;100353.69;;;15.54;73.81
17230;BME280;8731;50.364;8.958;2023-03-20T12:37:02;100341.41;;;15.50;73.47
17230;BME280;8731;50.364;8.958;2023-03-20T12:41:37;100339.75;;;15.95;72.21
17230;BME280;8731;50.364;8.958;2023-03-20T12:46:10;100324.69;;;16.23;69.15
17230;BME280;8731;50.364;8.958;2023-03-20T12:50:47;100324.91;;;16.26;66.53
17230;BME280;8731;50.364;8.958;2023-03-20T12:55:24;100313.72;;;16.26;64.31
17230;BME280;8731;50.364;8.958;2023-03-20T13:00:09;100301.56;;;16.35;63.52
17230;BME280;8731;50.364;8.958;2023-03-20T13:04:52;100306.13;;;16.39;63.76
17230;BME280;8731;50.364;8.958;2023-03-20T13:09:51;100291.06;;;16.09;61.35
17230;BME280;8731;50.364;8.958;2023-03-20T13:14:31;100290.06;;;16.07;61.18
17230;BME280;8731;50.364;8.958;2023-03-20T13:19:02;100281.56;;;16.19;60.49
17230;BME280;8731;50.364;8.958;2023-03-20T13:23:32;100287.41;;;15.93;60.79
17230;BME280;8731;50.364;8.958;2023-03-20T13:28:05;100286.06;;;15.99;61.62
17230;BME280;8731;50.364;8.958;2023-03-20T13:32:43;100283.72;;;16.13;60.88
17230;BME280;8731;50.364;8.958;2023-03-20T13:37:17;100279.13;;;15.98;62.77
17230;BME280;8731;50.364;8.958;2023-03-20T13:41:45;100276.44;;;15.96;63.69
17230;BME280;8731;50.364;8.958;2023-03-20T13:46:13;100278.44;;;15.65;63.68
17230;BME280;8731;50.364;8.958;2023-03-20T13:50:43;100269.19;;;15.79;62.05
17230;BME280;8731;50.364;8.958;2023-03-20T13:55:16;100270.84;;;15.78;61.43
17230;BME280;8731;50.364;8.958;2023-03-20T13:59:55;100271.06;;;15.81;61.64
17230;BME280;8731;50.364;8.958;2023-03-20T14:04:27;100256.78;;;15.73;60.48
17230;BME280;8731;50.364;8.958;2023-03-20T14:08:52;100262.72;;;15.72;61.30
17230;BME280;8731;50.364;8.958;2023-03-20T14:13:16;100257.56;;;15.60;60.17
17230;BME280;8731;50.364;8.958;2023-03-20T14:17:49;100258.19;;;15.58;60.35
17230;BME280;8731;50.364;8.958;2023-03-20T14:22:21;100258.41;;;15.49;58.04
17230;BME280;8731;50.364;8.958;2023-03-20T14:26:48;100255.19;;;15.52;57.36
17230;BME280;8731;50.364;8.958;2023-03-20T14:31:27;100255.81;;;15.38;56.54
17230;BME280;8731;50.364;8.958;2023-03-20T14:36:16;100278.88;;;15.26;54.43
17230;BME280;8731;50.364;8.958;2023-03-20T14:40:51;100287.03;;;15.20;53.62
17230;BME280;8731;50.364;8.958;2023-03-20T14:45:34;100280.34;;;15.34;54.63
17230;BME280;8731;50.364;8.958;2023-03-20T14:50:05;100285.84;;;15.39;55.17
17230;BME280;8731;50.364;8.958;2023-03-20T14:54:33;100286.25;;;15.33;54.94
17230;BME280;8731;50.364;8.958;2023-03-20T14:59:00;100290.28;;;15.29;54.54
17230;BME280;8731;50.364;8.958;2023-03-20T15:03:24;100294.16;;;15.24;55.48
17230;BME280;8731;50.364;8.958;2023-03-20T15:07:46;100296.09;;;15.05;55.02
17230;BME280;8731;50.364;8.958;2023-03-20T15:12:11;100294.78;;;15.10;55.04
17230;BME280;8731;50.364;8.958;2023-03-20T15:16:38;100288.50;;;14.95;54.87
17230;BME280;8731;50.364;8.958;2023-03-20T15:21:00;100290.28;;;14.96;55.34
17230;BME280;8731;50.364;8.958;2023-03-20T15:25:27;100294.41;;;14.94;54.49
17230;BME280;8731;50.364;8.958;2023-03-20T15:29:53;100289.53;;;14.87;54.51
17230;BME280;8731;50.364;8.958;2023-03-20T15:34:20;100295.53;;;14.76;54.68
17230;BME280;8731;50.364;8.958;2023-03-20T15:38:46;100298.56;;;14.60;53.98
17230;BME280;8731;50.364;8.958;2023-03-20T15:43:12;100302.25;;;14.63;54.16
17230;BME280;8731;50.364;8.958;2023-03-20T15:47:41;100310.47;;;14.59;53.92
17230;BME280;8731;50.364;8.958;2023-03-20T15:52:07;100305.28;;;14.48;53.63
17230;BME280;8731;50.364;8.958;2023-03-20T15:56:38;100305.06;;;14.45;55.11
17230;BME280;8731;50.364;8.958;2023-03-20T16:01:05;100315.50;;;14.05;54.93
17230;BME280;8731;50.364;8.958;2023-03-20T16:05:29;100318.72;;;14.03;56.69
17230;BME280;8731;50.364;8.958;2023-03-20T16:09:54;100328.63;;;13.78;57.00
17230;BME280;8731;50.364;8.958;2023-03-20T16:14:19;100325.06;;;13.76;58.75
17230;BME280;8731;50.364;8.958;2023-03-20T16:18:44;100324.66;;;13.81;59.28
17230;BME280;8731;50.364;8.958;2023-03-20T16:23:08;100336.94;;;13.65;60.56
17230;BME280;8731;50.364;8.958;2023-03-20T16:27:33;100336.16;;;13.66;60.55
17230;BME280;8731;50.364;8.958;2023-03-20T16:32:03;100347.06;;;13.64;61.91
17230;BME280;8731;50.364;8.958;2023-03-20T16:36:28;100348.47;;;13.60;62.59
17230;BME280;8731;50.364;8.958;2023-03-20T16:40:53;100336.19;;;13.56;62.32
17230;BME280;8731;50.364;8.958;2023-03-20T16:45:24;100346.28;;;13.34;62.87
17230;BME280;8731;50.364;8.958;2023-03-20T16:50:03;100346.69;;;13.29;63.06
17230;BME280;8731;50.364;8.958;2023-03-20T16:54:34;100346.13;;;13.23;62.83
17230;BME280;8731;50.364;8.958;2023-03-20T16:58:57;100346.69;;;12.89;63.27
17230;BME280;8731;50.364;8.958;2023-03-20T17:03:28;100359.72;;;12.93;63.04
17230;BME280;8731;50.364;8.958;2023-03-20T17:08:02;100354.59;;;12.93;63.83
17230;BME280;8731;50.364;8.958;2023-03-20T17:12:40;100361.50;;;12.94;64.00
17230;BME280;8731;50.364;8.958;2023-03-20T17:17:08;100366.78;;;12.56;64.23
17230;BME280;8731;50.364;8.958;2023-03-20T17:21:34;100368.72;;;12.69;64.41
17230;BME280;8731;50.364;8.958;2023-03-20T17:25:57;100365.00;;;12.65;64.93
17230;BME280;8731;50.364;8.958;2023-03-20T17:30:21;100361.84;;;12.49;63.93
17230;BME280;8731;50.364;8.958;2023-03-20T17:34:45;100368.28;;;12.54;64.07
17230;BME280;8731;50.364;8.958;2023-03-20T17:39:16;100377.94;;;12.48;64.05
17230;BME280;8731;50.364;8.958;2023-03-20T17:43:39;100378.53;;;12.35;65.32
17230;BME280;8731;50.364;8.958;2023-03-20T17:48:03;100377.69;;;12.26;65.07
17230;BME280;8731;50.364;8.958;2023-03-20T17:52:27;100387.28;;;12.28;65.05
17230;BME280;8731;50.364;8.958;2023-03-20T17:56:51;100383.16;;;12.20;65.46
17230;BME280;8731;50.364;8.958;2023-03-20T18:01:13;100383.03;;;12.19;65.06
17230;BME280;8731;50.364;8.958;2023-03-20T18:05:35;100378.81;;;12.19;65.29
17230;BME280;8731;50.364;8.958;2023-03-20T18:09:58;100385.81;;;12.12;65.58
17230;BME280;8731;50.364;8.958;2023-03-20T18:14:22;100381.59;;;12.12;67.09
17230;BME280;8731;50.364;8.958;2023-03-20T18:18:45;100385.84;;;12.03;67.24
17230;BME280;8731;50.364;8.958;2023-03-20T18:23:08;100388.69;;;12.06;67.71
17230;BME280;8731;50.364;8.958;2023-03-20T18:27:30;100389.66;;;11.98;66.46
17230;BME280;8731;50.364;8.958;2023-03-20T18:31:54;100389.47;;;11.86;67.33
17230;BME280;8731;50.364;8.958;2023-03-20T18:36:18;100381.19;;;11.61;67.33
17230;BME280;8731;50.364;8.958;2023-03-20T18:40:42;100374.50;;;11.72;67.76
17230;BME280;8731;50.364;8.958;2023-03-20T18:45:09;100378.06;;;11.55;68.21
17230;BME280;8731;50.364;8.958;2023-03-20T18:49:33;100377.53;;;11.68;68.79
17230;BME280;8731;50.364;8.958;2023-03-20T18:53:57;100371.16;;;11.54;69.31
17230;BME280;8731;50.364;8.958;2023-03-20T18:58:21;100370.34;;;11.45;70.46
17230;BME280;8731;50.364;8.958;2023-03-20T19:02:44;100368.06;;;11.48;70.80
17230;BME280;8731;50.364;8.958;2023-03-20T19:07:11;100366.53;;;11.50;71.16
17230;BME280;8731;50.364;8.958;2023-03-20T19:11:33;100369.84;;;11.49;71.86
17230;BME280;8731;50.364;8.958;2023-03-20T19:15:55;100371.50;;;11.49;71.68
17230;BME280;8731;50.364;8.958;2023-03-20T19:20:36;100376.47;;;11.47;72.44
17230;BME280;8731;50.364;8.958;2023-03-20T19:25:11;100379.22;;;11.40;73.19
17230;BME280;8731;50.364;8.958;2023-03-20T19:29:47;100378.97;;;11.28;74.39
17230;BME280;8731;50.364;8.958;2023-03-20T19:34:19;100387.41;;;11.19;74.79
17230;BME280;8731;50.364;8.958;2023-03-20T19:38:41;100384.72;;;11.17;74.49
17230;BME280;8731;50.364;8.958;2023-03-20T19:43:17;100379.78;;;11.19;74.51
17230;BME280;8731;50.364;8.958;2023-03-20T19:47:44;100379.91;;;11.20;75.03
17230;BME280;8731;50.364;8.958;2023-03-20T19:52:16;100387.28;;;11.17;74.49
17230;BME280;8731;50.364;8.958;2023-03-20T19:56:51;100379.38;;;11.05;75.35
17230;BME280;8731;50.364;8.958;2023-03-20T20:01:16;100387.34;;;11.00;76.90
17230;BME280;8731;50.364;8.958;2023-03-20T20:05:44;100380.66;;;10.83;78.45
17230;BME280;8731;50.364;8.958;2023-03-20T20:10:09;100387.25;;;10.90;78.43
17230;BME280;8731;50.364;8.958;2023-03-20T20:14:32;100390.88;;;10.74;78.83
17230;BME280;8731;50.364;8.958;2023-03-20T20:18:55;100389.06;;;10.73;77.89
17230;BME280;8731;50.364;8.958;2023-03-20T20:23:21;100394.91;;;10.72;78.55
17230;BME280;8731;50.364;8.958;2023-03-20T20:27:50;100390.28;;;10.68;79.15
17230;BME280;8731;50.364;8.958;2023-03-20T20:32:12;100393.28;;;10.73;78.43
17230;BME280;8731;50.364;8.958;2023-03-20T20:36:36;100400.63;;;10.70;78.47
17230;BME280;8731;50.364;8.958;2023-03-20T20:40:58;100398.84;;;10.69;78.47
17230;BME280;8731;50.364;8.958;2023-03-20T20:45:22;100404.97;;;10.62;79.40
17230;BME280;8731;50.364;8.958;2023-03-20T20:49:45;100391.66;;;10.56;79.81
17230;BME280;8731;50.364;8.958;2023-03-20T20:54:09;100398.69;;;10.59;79.40
17230;BME280;8731;50.364;8.958;2023-03-20T20:58:32;100394.34;;;10.58;79.05
17230;BME280;8731;50.364;8.958;2023-03-20T21:02:54;100399.91;;;10.45;78.98
17230;BME280;8731;50.364;8.958;2023-03-20T21:07:17;100389.13;;;10.48;78.88
17230;BME280;8731;50.364;8.958;2023-03-20T21:11:41;100392.41;;;10.38;80.17
17230;BME280;8731;50.364;8.958;2023-03-20T21:16:04;100393.31;;;10.38;79.51
17230;BME280;8731;50.364;8.958;2023-03-20T21:20:28;100389.72;;;10.36;80.30
17230;BME280;8731;50.364;8.958;2023-03-20T21:24:51;100387.06;;;10.43;79.34
17230;BME280;8731;50.364;8.958;2023-03-20T21:29:15;100386.59;;;10.48;79.63
17230;BME280;8731;50.364;8.958;2023-03-20T21:33:37;100388.56;;;10.41;80.50
17230;BME280;8731;50.364;8.958;2023-03-20T21:38:00;100383.59;;;10.34;80.30
17230;BME280;8731;50.364;8.958;2023-03-20T21:42:22;100384.38;;;10.25;79.72
17230;BME280;8731;50.364;8.958;2023-03-20T21:46:46;100389.75;;;10.28;79.42
17230;BME280;8731;50.364;8.958;2023-03-20T21:51:08;100385.72;;;10.30;79.52
17230;BME280;8731;50.364;8.958;2023-03-20T21:55:31;100377.63;;;10.25;80.70
17230;BME280;8731;50.364;8.958;2023-03-20T21:59:53;100382.25;;;10.29;80.52
17230;BME280;8731;50.364;8.958;2023-03-20T22:04:17;100382.13;;;10.28;80.69
17230;BME280;8731;50.364;8.958;2023-03-20T22:08:40;100383.47;;;10.24;81.09
17230;BME280;8731;50.364;8.958;2023-03-20T22:13:03;100376.88;;;10.26;81.71
17230;BME280;8731;50.364;8.958;2023-03-20T22:17:25;100379.88;;;10.22;80.96
17230;BME280;8731;50.364;8.958;2023-03-20T22:21:49;100382.25;;;10.29;81.38
17230;BME280;8731;50.364;8.958;2023-03-20T22:26:11;100384.97;;;10.22;81.32
17230;BME280;8731;50.364;8.958;2023-03-20T22:30:33;100385.53;;;9.94;82.15
17230;BME280;8731;50.364;8.958;2023-03-20T22:34:57;100378.66;;;10.19;80.42
17230;BME280;8731;50.364;8.958;2023-03-20T22:39:21;100377.44;;;10.15;80.51
17230;BME280;8731;50.364;8.958;2023-03-20T22:43:43;100370.59;;;10.23;80.42
17230;BME280;8731;50.364;8.958;2023-03-20T22:48:06;100373.91;;;10.22;80.74
17230;BME280;8731;50.364;8.958;2023-03-20T22:52:28;100370.28;;;10.20;79.92
17230;BME280;8731;50.364;8.958;2023-03-20T22:56:52;100364.41;;;10.12;79.71
17230;BME280;8731;50.364;8.958;2023-03-20T23:01:15;100366.41;;;10.23;80.12
17230;BME280;8731;50.364;8.958;2023-03-20T23:05:38;100360.09;;;10.11;80.62
17230;BME280;8731;50.364;8.958;2023-03-20T23:10:00;100359.50;;;10.05;81.08
17230;BME280;8731;50.364;8.958;2023-03-20T23:14:25;100355.28;;;10.14;81.21
17230;BME280;8731;50.364;8.958;2023-03-20T23:18:47;100356.03;;;10.13;81.09
17230;BME280;8731;50.364;8.958;2023-03-20T23:23:09;100353.03;;;10.17;81.25
17230;BME280;8731;50.364;8.958;2023-03-20T23:27:32;100353.78;;;10.16;81.34
17230;BME280;8731;50.364;8.958;2023-03-20T23:31:55;100347.06;;;10.16;81.49
17230;BME280;8731;50.364;8.958;2023-03-20T23:36:18;100349.59;;;10.16;80.90
17230;BME280;8731;50.364;8.958;2023-03-20T23:40:40;100344.50;;;10.16;81.65
17230;BME280;8731;50.364;8.958;2023-03-20T23:45:08;100352.31;;;10.18;81.62